createdAt,value
2022-12-08T00:00:36.421Z,3.60
2022-12-08T00:03:07.156Z,3.30
2022-12-08T00:05:55.280Z,3.00
2022-12-08T00:08:43.415Z,3.50
2022-12-08T00:11:16.304Z,3.20
2022-12-08T00:13:47.170Z,3.40
2022-12-08T00:16:17.649Z,3.50
2022-12-08T00:18:48.710Z,2.90
2022-12-08T00:21:19.203Z,3.20
2022-12-08T00:23:49.612Z,3.30
2022-12-08T00:26:20.071Z,4.00
2022-12-08T00:28:50.478Z,3.90
2022-12-08T00:31:20.967Z,3.80
2022-12-08T00:33:51.511Z,4.80
2022-12-08T00:36:21.973Z,4.10
2022-12-08T00:38:52.400Z,4.00
2022-12-08T00:41:45.383Z,3.90
2022-12-08T00:44:18.849Z,3.90
2022-12-08T00:46:51.047Z,4.00
2022-12-08T00:49:22.195Z,4.40
2022-12-08T00:51:52.834Z,5.00
2022-12-08T00:54:24.065Z,4.80
2022-12-08T00:56:54.763Z,4.80
2022-12-08T00:59:25.447Z,4.40
2022-12-08T01:01:55.983Z,4.70
2022-12-08T01:04:27.802Z,19.40
2022-12-08T01:06:58.371Z,10.00
2022-12-08T01:09:28.790Z,5.20
2022-12-08T01:11:59.251Z,5.10
2022-12-08T01:14:29.946Z,4.70
2022-12-08T01:17:00.474Z,4.90
2022-12-08T01:19:31.301Z,4.50
2022-12-08T01:22:01.854Z,4.30
2022-12-08T01:24:32.802Z,4.10
2022-12-08T01:27:03.325Z,4.20
2022-12-08T01:29:34.569Z,4.10
2022-12-08T01:32:05.288Z,4.60
2022-12-08T01:34:35.978Z,3.80
2022-12-08T01:37:06.433Z,3.40
2022-12-08T01:39:37.599Z,4.00
2022-12-08T01:42:18.283Z,3.90
2022-12-08T01:45:03.830Z,4.10
2022-12-08T01:47:46.314Z,4.00
2022-12-08T01:50:19.365Z,4.10
2022-12-08T01:52:54.425Z,5.10
2022-12-08T01:55:30.619Z,4.80
2022-12-08T01:58:05.801Z,6.70
2022-12-08T02:00:36.204Z,7.20
2022-12-08T02:03:13.393Z,5.90
2022-12-08T02:05:44.348Z,6.10
2022-12-08T02:08:15.760Z,6.60
2022-12-08T02:10:47.983Z,6.00
2022-12-08T02:13:20.959Z,6.20
2022-12-08T02:16:02.401Z,6.70
2022-12-08T02:18:43.463Z,6.20
2022-12-08T02:21:21.102Z,13.60
2022-12-08T02:24:01.129Z,7.40
2022-12-08T02:27:12.286Z,6.00
2022-12-08T02:30:17.754Z,5.80
2022-12-08T02:33:14.646Z,5.80
2022-12-08T02:35:55.193Z,5.80
2022-12-08T02:38:36.489Z,6.50
2022-12-08T02:41:28.936Z,6.00
2022-12-08T02:44:06.324Z,6.30
2022-12-08T02:46:41.995Z,6.30
2022-12-08T02:49:15.226Z,6.20
2022-12-08T02:51:45.742Z,6.50
2022-12-08T02:54:17.053Z,6.30
2022-12-08T02:57:07.231Z,6.10
2022-12-08T02:59:54.056Z,6.00
2022-12-08T03:02:44.262Z,5.90
2022-12-08T03:05:28.595Z,6.60
2022-12-08T03:08:04.923Z,6.00
2022-12-08T03:10:41.726Z,5.90
2022-12-08T03:13:15.847Z,5.40
2022-12-08T03:15:50.408Z,7.30
2022-12-08T03:18:24.477Z,7.00
2022-12-08T03:20:55.405Z,5.50
2022-12-08T03:23:27.676Z,6.60
2022-12-08T03:26:05.273Z,5.50
2022-12-08T03:28:36.040Z,5.00
2022-12-08T03:31:11.520Z,5.60
2022-12-08T03:33:46.299Z,5.30
2022-12-08T03:36:17.242Z,5.30
2022-12-08T03:38:52.440Z,5.60
2022-12-08T03:41:24.429Z,5.40
2022-12-08T03:43:57.105Z,5.40
2022-12-08T03:48:58.492Z,4.80
2022-12-08T03:51:28.921Z,5.40
2022-12-08T03:53:59.449Z,5.80
2022-12-08T03:56:33.285Z,5.50
2022-12-08T03:59:04.794Z,5.80
2022-12-08T04:01:35.886Z,5.40
2022-12-08T04:04:06.484Z,5.00
2022-12-08T04:06:36.951Z,5.10
2022-12-08T04:09:07.443Z,5.70
2022-12-08T04:11:37.883Z,5.30
2022-12-08T04:14:08.354Z,5.60
2022-12-08T04:16:38.782Z,5.70
2022-12-08T04:19:09.773Z,5.10
2022-12-08T04:21:40.201Z,5.20
2022-12-08T04:24:11.570Z,6.50
2022-12-08T04:26:41.998Z,6.60
2022-12-08T04:29:12.596Z,6.20
2022-12-08T04:31:43.134Z,5.90
2022-12-08T04:34:14.528Z,5.70
2022-12-08T04:36:44.961Z,5.30
2022-12-08T04:39:15.401Z,5.30
2022-12-08T04:41:45.869Z,5.90
2022-12-08T04:44:16.269Z,5.50
2022-12-08T04:46:46.844Z,5.50
2022-12-08T04:49:17.278Z,4.60
2022-12-08T04:51:47.724Z,6.10
2022-12-08T04:54:18.136Z,5.30
2022-12-08T04:56:48.628Z,5.70
2022-12-08T04:59:19.039Z,5.60
2022-12-08T05:01:49.594Z,5.70
2022-12-08T05:04:20.149Z,5.50
2022-12-08T05:06:50.746Z,5.30
2022-12-08T05:09:21.406Z,5.00
2022-12-08T05:11:52.011Z,5.80
2022-12-08T05:14:22.647Z,5.90
2022-12-08T05:16:53.178Z,5.50
2022-12-08T05:19:23.788Z,6.10
2022-12-08T05:21:54.541Z,6.10
2022-12-08T05:24:25.179Z,6.40
2022-12-08T05:26:55.671Z,5.90
2022-12-08T05:29:26.352Z,7.80
2022-12-08T05:31:57.346Z,8.20
2022-12-08T05:34:27.887Z,7.90
2022-12-08T05:36:58.434Z,6.70
2022-12-08T05:39:28.905Z,6.20
2022-12-08T05:41:59.725Z,6.60
2022-12-08T05:44:30.740Z,6.40
2022-12-08T05:47:01.371Z,6.10
2022-12-08T05:49:31.857Z,6.70
2022-12-08T05:52:02.298Z,6.10
2022-12-08T05:54:32.730Z,6.70
2022-12-08T05:57:03.639Z,6.30
2022-12-08T05:59:34.225Z,7.00
2022-12-08T06:02:04.812Z,7.10
2022-12-08T06:04:35.619Z,6.70
2022-12-08T06:07:06.082Z,7.60
2022-12-08T06:09:36.472Z,6.30
2022-12-08T06:12:07.637Z,6.40
2022-12-08T06:14:38.634Z,6.50
2022-12-08T06:17:09.182Z,7.10
2022-12-08T06:19:39.842Z,6.60
2022-12-08T06:22:10.428Z,6.60
2022-12-08T06:24:40.832Z,6.20
2022-12-08T06:27:11.241Z,6.60
2022-12-08T06:29:41.673Z,7.70
2022-12-08T06:32:12.503Z,8.70
2022-12-08T06:34:43.050Z,6.50
2022-12-08T06:37:14.629Z,7.40
2022-12-08T06:39:45.322Z,6.80
2022-12-08T06:42:33.778Z,6.80
2022-12-08T06:45:04.943Z,6.50
2022-12-08T06:47:35.676Z,7.00
2022-12-08T06:50:08.343Z,6.40
2022-12-08T06:52:49.338Z,6.30
2022-12-08T06:55:57.349Z,7.30
2022-12-08T06:58:17.523Z,6.50
2022-12-08T07:00:48.347Z,6.40
2022-12-08T07:03:18.876Z,6.00
2022-12-08T07:05:49.294Z,6.60
2022-12-08T07:08:19.836Z,6.00
2022-12-08T07:10:50.496Z,5.80
2022-12-08T07:13:20.987Z,6.60
2022-12-08T07:15:51.456Z,6.70
2022-12-08T07:18:22.091Z,7.50
2022-12-08T07:20:52.555Z,6.60
2022-12-08T07:23:23.011Z,7.00
2022-12-08T07:25:53.576Z,10.30
2022-12-08T07:28:23.994Z,8.80
2022-12-08T07:30:54.571Z,9.00
2022-12-08T07:33:25.706Z,8.20
2022-12-08T07:36:00.916Z,8.10
2022-12-08T07:38:31.885Z,7.80
2022-12-08T07:41:03.006Z,8.10
2022-12-08T07:43:33.760Z,7.70
2022-12-08T07:46:04.418Z,7.50
2022-12-08T07:48:35.014Z,7.40
2022-12-08T07:51:06.665Z,7.70
2022-12-08T07:53:37.152Z,7.40
2022-12-08T07:56:10.900Z,7.50
2022-12-08T07:58:41.934Z,7.30
2022-12-08T08:01:23.228Z,7.20
2022-12-08T08:03:54.644Z,5.70
2022-12-08T08:06:25.564Z,6.00
2022-12-08T08:08:56.011Z,6.50
2022-12-08T08:11:26.499Z,7.50
2022-12-08T08:13:57.617Z,7.60
2022-12-08T08:16:31.056Z,6.80
2022-12-08T08:19:05.524Z,6.90
2022-12-08T08:21:45.686Z,6.40
2022-12-08T08:24:17.736Z,8.50
2022-12-08T08:26:48.145Z,8.20
2022-12-08T08:29:18.730Z,8.20
2022-12-08T08:31:49.139Z,7.30
2022-12-08T08:34:19.630Z,7.80
2022-12-08T08:36:50.155Z,5.90
2022-12-08T08:39:20.835Z,6.30
2022-12-08T08:41:51.282Z,6.20
2022-12-08T08:44:21.778Z,5.80
2022-12-08T08:46:52.363Z,6.00
2022-12-08T08:49:22.900Z,6.10
2022-12-08T08:51:53.704Z,6.40
2022-12-08T08:54:24.516Z,6.10
2022-12-08T08:56:54.966Z,5.80
2022-12-08T08:59:25.877Z,6.50
2022-12-08T09:01:56.680Z,6.20
2022-12-08T09:04:27.329Z,6.10
2022-12-08T09:06:57.876Z,6.90
2022-12-08T09:09:28.407Z,6.30
2022-12-08T09:11:59.681Z,7.40
2022-12-08T09:14:30.153Z,7.10
2022-12-08T09:17:00.662Z,6.50
2022-12-08T09:19:31.191Z,6.90
2022-12-08T09:22:01.861Z,5.80
2022-12-08T09:24:32.276Z,6.30
2022-12-08T09:27:02.686Z,5.50
2022-12-08T09:29:36.154Z,6.10
2022-12-08T09:32:07.419Z,7.10
2022-12-08T09:34:37.874Z,4.70
2022-12-08T09:37:08.280Z,4.90
2022-12-08T09:39:38.862Z,5.30
2022-12-08T09:42:11.347Z,5.50
2022-12-08T09:47:21.988Z,4.20
2022-12-08T09:49:57.454Z,4.90
2022-12-08T09:52:31.270Z,4.50
2022-12-08T09:55:05.499Z,4.90
2022-12-08T09:57:36.700Z,5.40
2022-12-08T10:00:12.811Z,5.10
2022-12-08T10:02:44.552Z,6.50
2022-12-08T10:05:17.228Z,6.00
2022-12-08T10:08:00.911Z,5.70
2022-12-08T10:10:38.878Z,4.80
2022-12-08T10:13:16.597Z,5.60
2022-12-08T10:15:53.893Z,5.30
2022-12-08T10:18:29.188Z,4.80
2022-12-08T10:21:12.778Z,5.60
2022-12-08T10:23:46.335Z,4.70
2022-12-08T10:26:18.821Z,5.60
2022-12-08T10:28:49.847Z,5.90
2022-12-08T10:31:23.344Z,5.20
2022-12-08T10:33:59.110Z,5.60
2022-12-08T10:36:47.925Z,5.10
2022-12-08T10:39:36.399Z,5.70
2022-12-08T10:42:17.511Z,5.70
2022-12-08T10:45:00.121Z,5.80
2022-12-08T10:47:35.914Z,4.90
2022-12-08T10:50:23.596Z,5.80
2022-12-08T10:53:00.500Z,5.80
2022-12-08T10:55:40.204Z,6.40
2022-12-08T10:58:26.582Z,6.20
2022-12-08T11:00:59.302Z,6.60
2022-12-08T11:03:34.234Z,5.60
2022-12-08T11:06:13.762Z,6.00
2022-12-08T11:08:52.635Z,6.10
2022-12-08T11:11:37.778Z,5.80
2022-12-08T11:14:16.694Z,6.80
2022-12-08T11:16:47.300Z,6.60
2022-12-08T11:19:20.627Z,6.00
2022-12-08T11:21:51.081Z,6.00
2022-12-08T11:24:29.254Z,6.30
2022-12-08T11:27:03.797Z,6.50
2022-12-08T11:29:36.577Z,6.20
2022-12-08T11:32:13.161Z,6.20
2022-12-08T11:34:48.977Z,6.20
2022-12-08T11:37:29.956Z,6.20
2022-12-08T11:40:09.199Z,6.60
2022-12-08T11:42:49.214Z,5.20
2022-12-08T11:45:25.804Z,5.00
2022-12-08T11:48:05.880Z,5.70
2022-12-08T11:50:44.468Z,5.50
2022-12-08T11:53:25.108Z,5.80
2022-12-08T11:55:59.336Z,6.00
2022-12-08T11:58:37.580Z,6.30
2022-12-08T12:01:14.966Z,6.40
2022-12-08T12:03:50.522Z,6.40
2022-12-08T12:06:54.131Z,6.20
2022-12-08T12:09:39.034Z,6.20
2022-12-08T12:12:21.705Z,6.20
2022-12-08T12:15:26.343Z,5.90
2022-12-08T12:18:02.924Z,6.50
2022-12-08T12:20:39.361Z,6.90
2022-12-08T12:23:22.204Z,7.00
2022-12-08T12:25:57.855Z,7.40
2022-12-08T12:28:30.539Z,8.20
2022-12-08T12:31:06.955Z,7.90
2022-12-08T12:33:38.174Z,7.50
2022-12-08T12:36:11.959Z,7.70
2022-12-08T12:39:06.370Z,7.00
2022-12-08T12:41:44.731Z,7.20
2022-12-08T12:44:40.449Z,7.50
2022-12-08T12:47:36.583Z,6.90
2022-12-08T12:50:13.161Z,6.80
2022-12-08T12:52:47.825Z,7.80
2022-12-08T12:55:30.535Z,7.40
2022-12-08T12:58:10.062Z,6.80
2022-12-08T13:00:40.594Z,6.30
2022-12-08T13:03:18.186Z,6.70
2022-12-08T13:05:53.993Z,6.80
2022-12-08T13:08:27.867Z,6.60
2022-12-08T13:11:04.086Z,7.00
2022-12-08T13:13:34.999Z,6.40
2022-12-08T13:16:19.730Z,7.30
2022-12-08T13:18:52.933Z,6.20
2022-12-08T13:21:25.778Z,6.20
2022-12-08T13:24:17.715Z,6.50
2022-12-08T13:26:49.695Z,7.00
2022-12-08T13:29:24.824Z,7.80
2022-12-08T13:31:57.328Z,7.00
2022-12-08T13:34:35.600Z,7.90
2022-12-08T13:37:26.527Z,7.50
2022-12-08T13:40:01.860Z,6.70
2022-12-08T13:42:41.961Z,7.10
2022-12-08T13:45:48.511Z,7.60
2022-12-08T13:48:35.200Z,7.50
2022-12-08T13:53:22.399Z,8.10
2022-12-08T13:57:10.612Z,6.70
2022-12-08T13:59:46.354Z,7.00
2022-12-08T14:02:22.066Z,7.40
2022-12-08T14:07:44.111Z,6.90
2022-12-08T14:10:21.121Z,7.30
2022-12-08T14:12:59.125Z,6.40
2022-12-08T14:15:37.601Z,7.60
2022-12-08T14:18:23.745Z,7.10
2022-12-08T14:21:22.088Z,7.40
2022-12-08T14:23:52.658Z,8.20
2022-12-08T14:26:23.589Z,7.60
2022-12-08T14:28:54.239Z,8.00
2022-12-08T14:31:25.234Z,7.90
2022-12-08T14:33:56.631Z,8.20
2022-12-08T14:36:29.087Z,8.90
2022-12-08T14:39:00.214Z,8.30
2022-12-08T14:41:34.967Z,8.70
2022-12-08T14:44:24.230Z,9.50
2022-12-08T14:47:08.595Z,9.00
2022-12-08T14:49:41.092Z,9.00
2022-12-08T14:52:13.391Z,10.10
2022-12-08T14:54:45.585Z,9.40
2022-12-08T14:57:17.250Z,8.70
2022-12-08T14:59:48.714Z,8.70
2022-12-08T15:02:32.256Z,8.60
2022-12-08T15:05:07.131Z,9.00
2022-12-08T15:07:50.172Z,8.50
2022-12-08T15:10:31.081Z,10.20
2022-12-08T15:13:05.887Z,9.60
2022-12-08T15:15:49.979Z,9.70
2022-12-08T15:18:23.344Z,8.50
2022-12-08T15:21:02.282Z,9.20
2022-12-08T15:23:39.460Z,10.20
2022-12-08T15:26:10.302Z,10.00
2022-12-08T15:28:40.739Z,10.00
2022-12-08T15:31:12.593Z,8.90
2022-12-08T15:33:43.077Z,9.50
2022-12-08T15:36:14.718Z,8.60
2022-12-08T15:38:45.677Z,10.30
2022-12-08T15:41:16.238Z,10.20
2022-12-08T15:43:46.756Z,10.90
2022-12-08T15:46:17.222Z,15.70
2022-12-08T15:48:48.032Z,10.60
2022-12-08T15:51:18.562Z,8.90
2022-12-08T15:53:49.091Z,9.10
2022-12-08T15:56:27.428Z,10.00
2022-12-08T15:58:59.114Z,9.60
2022-12-08T16:01:29.898Z,10.40
2022-12-08T16:09:45.084Z,9.70
2022-12-08T16:13:13.863Z,10.70
2022-12-08T16:18:23.899Z,11.70
2022-12-08T16:21:22.752Z,11.80
2022-12-08T16:23:45.897Z,10.60
2022-12-08T16:29:09.724Z,11.30
2022-12-08T16:31:40.266Z,11.50
2022-12-08T16:34:10.762Z,10.20
2022-12-08T16:36:41.309Z,18.60
2022-12-08T16:39:13.659Z,13.80
2022-12-08T16:42:02.130Z,11.20
2022-12-08T16:44:32.599Z,10.60
2022-12-08T16:47:11.295Z,10.30
2022-12-08T16:49:41.821Z,11.20
2022-12-08T16:52:12.606Z,10.40
2022-12-08T16:54:43.065Z,10.10
2022-12-08T16:57:13.576Z,11.10
2022-12-08T16:59:44.279Z,10.80
2022-12-08T17:02:16.562Z,10.70
2022-12-08T17:07:16.339Z,10.10
2022-12-08T17:09:47.093Z,10.80
2022-12-08T17:12:17.650Z,15.80
2022-12-08T17:14:48.137Z,13.20
2022-12-08T17:17:18.671Z,12.20
2022-12-08T17:19:49.716Z,13.20
2022-12-08T17:22:20.231Z,12.70
2022-12-08T17:24:50.723Z,13.40
2022-12-08T17:27:21.368Z,16.20
2022-12-08T17:29:52.096Z,15.30
2022-12-08T17:32:22.836Z,14.10
2022-12-08T17:34:53.602Z,13.60
2022-12-08T17:37:24.168Z,14.80
2022-12-08T17:39:54.800Z,14.80
2022-12-08T17:42:27.276Z,14.20
2022-12-08T17:47:27.131Z,13.70
2022-12-08T17:49:58.020Z,14.20
2022-12-08T17:52:28.628Z,14.30
2022-12-08T17:54:59.201Z,13.20
2022-12-08T17:57:29.799Z,12.70
2022-12-08T18:00:00.329Z,12.90
2022-12-08T18:02:33.583Z,12.10
2022-12-08T18:05:04.256Z,13.70
2022-12-08T18:07:34.761Z,11.30
2022-12-08T18:10:05.955Z,12.80
2022-12-08T18:12:36.986Z,11.80
2022-12-08T18:15:11.641Z,11.50
2022-12-08T18:17:42.381Z,11.90
2022-12-08T18:20:14.871Z,11.90
2022-12-08T18:25:15.464Z,10.70
2022-12-08T18:27:46.066Z,11.60
2022-12-08T18:30:19.349Z,10.70
2022-12-08T18:32:52.947Z,10.20
2022-12-08T18:35:28.839Z,12.40
2022-12-08T18:38:00.187Z,12.90
2022-12-08T18:40:31.132Z,12.50
2022-12-08T18:43:01.864Z,10.90
2022-12-08T18:45:32.919Z,9.90
2022-12-08T18:48:03.662Z,13.20
2022-12-08T18:50:34.093Z,14.90
2022-12-08T18:53:04.904Z,16.40
2022-12-08T18:55:35.386Z,11.30
2022-12-08T18:58:05.892Z,11.20
2022-12-08T19:00:36.362Z,10.60
2022-12-08T19:03:07.394Z,10.70
2022-12-08T19:05:38.251Z,11.50
2022-12-08T19:08:09.285Z,10.90
2022-12-08T19:10:40.480Z,11.30
2022-12-08T19:13:11.594Z,11.10
2022-12-08T19:15:42.058Z,10.40
2022-12-08T19:18:13.245Z,11.90
2022-12-08T19:20:43.680Z,11.40
2022-12-08T19:23:16.176Z,11.10
2022-12-08T19:25:46.674Z,12.20
2022-12-08T19:28:17.243Z,13.10
2022-12-08T19:30:47.833Z,13.00
2022-12-08T19:33:18.499Z,10.70
2022-12-08T19:35:52.692Z,11.50
2022-12-08T19:38:23.430Z,10.60
2022-12-08T19:41:11.279Z,11.90
2022-12-08T19:43:59.159Z,11.10
2022-12-08T19:46:29.780Z,9.90
2022-12-08T19:49:00.368Z,11.10
2022-12-08T19:51:30.916Z,11.30
2022-12-08T19:54:01.406Z,10.60
2022-12-08T19:56:33.051Z,10.20
2022-12-08T19:59:03.619Z,12.60
2022-12-08T20:01:34.129Z,9.90
2022-12-08T20:04:05.128Z,9.90
2022-12-08T20:06:35.991Z,9.00
2022-12-08T20:09:07.490Z,10.40
2022-12-08T20:11:38.042Z,9.90
2022-12-08T20:14:08.880Z,9.60
2022-12-08T20:16:41.200Z,11.10
2022-12-08T20:19:11.832Z,10.00
2022-12-08T20:21:43.164Z,10.10
2022-12-08T20:24:13.679Z,10.90
2022-12-08T20:26:44.184Z,11.60
2022-12-08T20:29:16.981Z,10.00
2022-12-08T20:31:47.921Z,9.40
2022-12-08T20:34:20.322Z,9.90
2022-12-08T20:36:50.767Z,10.00
2022-12-08T20:39:21.333Z,10.20
2022-12-08T20:41:54.607Z,11.80
2022-12-08T20:44:25.352Z,10.40
2022-12-08T20:46:56.702Z,10.90
2022-12-08T20:49:32.812Z,9.50
2022-12-08T20:52:05.289Z,11.00
2022-12-08T20:54:36.730Z,11.80
2022-12-08T20:57:07.855Z,10.10
2022-12-08T20:59:38.615Z,10.60
2022-12-08T21:02:10.795Z,10.70
2022-12-08T21:04:41.525Z,10.80
2022-12-08T21:07:13.793Z,11.20
2022-12-08T21:09:44.946Z,10.30
2022-12-08T21:12:15.627Z,11.10
2022-12-08T21:14:46.320Z,10.30
2022-12-08T21:17:17.589Z,11.10
2022-12-08T21:19:48.820Z,11.10
2022-12-08T21:22:20.844Z,11.80
2022-12-08T21:24:51.812Z,11.70
2022-12-08T21:27:22.503Z,11.30
2022-12-08T21:29:53.278Z,9.90
2022-12-08T21:32:29.924Z,10.80
2022-12-08T21:35:01.251Z,10.80
2022-12-08T21:37:31.947Z,11.80
2022-12-08T21:40:02.557Z,11.00
2022-12-08T21:42:45.271Z,12.80
2022-12-08T21:45:18.434Z,13.10
2022-12-08T21:47:50.322Z,15.60
2022-12-08T21:50:21.223Z,12.30
2022-12-08T21:52:52.258Z,10.60
2022-12-08T21:55:23.838Z,11.90
2022-12-08T21:57:55.871Z,12.30
2022-12-08T22:00:27.519Z,11.70
2022-12-08T22:02:58.849Z,11.40
2022-12-08T22:05:29.592Z,10.70
2022-12-08T22:08:00.411Z,11.50
2022-12-08T22:10:31.235Z,11.30
2022-12-08T22:13:01.807Z,12.10
2022-12-08T22:15:33.120Z,11.70
2022-12-08T22:18:04.561Z,11.60
2022-12-08T22:20:39.521Z,11.60
2022-12-08T22:23:12.977Z,11.50
2022-12-08T22:25:43.677Z,12.10
2022-12-08T22:28:15.192Z,12.20
2022-12-08T22:30:45.877Z,11.10
2022-12-08T22:33:16.508Z,12.30
2022-12-08T22:35:55.436Z,11.60
2022-12-08T22:38:26.071Z,11.00
2022-12-08T22:40:56.700Z,11.80
2022-12-08T22:43:27.527Z,11.00
2022-12-08T22:45:58.312Z,11.60
2022-12-08T22:48:29.317Z,10.70
2022-12-08T22:51:02.713Z,13.00
2022-12-08T22:53:33.669Z,12.20
2022-12-08T22:56:06.880Z,11.50
2022-12-08T22:58:37.806Z,12.30
2022-12-08T23:01:09.544Z,12.10
2022-12-08T23:03:40.079Z,12.90
2022-12-08T23:06:16.009Z,10.70
2022-12-08T23:08:47.280Z,11.70
2022-12-08T23:11:18.094Z,10.90
2022-12-08T23:13:49.081Z,11.60
2022-12-08T23:16:20.223Z,10.50
2022-12-08T23:18:51.165Z,10.30
2022-12-08T23:21:22.434Z,11.30
2022-12-08T23:23:53.002Z,11.00
2022-12-08T23:26:26.688Z,11.30
2022-12-08T23:29:50.429Z,11.50
2022-12-08T23:32:40.979Z,10.30
2022-12-08T23:35:13.031Z,10.10
2022-12-08T23:37:48.268Z,10.60
2022-12-08T23:40:19.762Z,11.10
2022-12-08T23:42:51.477Z,11.90
2022-12-08T23:45:22.901Z,10.40
2022-12-08T23:47:54.619Z,11.70
2022-12-08T23:50:26.253Z,13.90
2022-12-08T23:52:57.680Z,13.20
2022-12-08T23:55:28.811Z,13.00
2022-12-08T23:57:59.590Z,11.60
